sensor_id;sensor_type;location;lat;lon;timestamp;temperature;humidity
18218;DHT22;9234;49.344;11.120;2023-04-06T00:00:07;-0.30;96.30
18218;DHT22;9234;49.344;11.120;2023-04-06T00:02:38;-0.30;96.30
18218;DHT22;9234;49.344;11.120;2023-04-06T00:05:07;-0.30;96.40
18218;DHT22;9234;49.344;11.120;2023-04-06T00:07:35;-0.40;96.90
18218;DHT22;9234;49.344;11.120;2023-04-06T00:10:05;-0.40;96.70
18218;DHT22;9234;49.344;11.120;2023-04-06T00:12:37;-0.40;96.70
18218;DHT22;9234;49.344;11.120;2023-04-06T00:15:07;-0.40;96.60
18218;DHT22;9234;49.344;11.120;2023-04-06T00:17:36;-0.50;96.50
18218;DHT22;9234;49.344;11.120;2023-04-06T00:20:06;-0.50;96.60
18218;DHT22;9234;49.344;11.120;2023-04-06T00:22:35;-0.50;96.50
18218;DHT22;9234;49.344;11.120;2023-04-06T00:25:04;-0.60;96.50
18218;DHT22;9234;49.344;11.120;2023-04-06T00:27:32;-0.60;96.50
18218;DHT22;9234;49.344;11.120;2023-04-06T00:30:01;-0.60;96.70
18218;DHT22;9234;49.344;11.120;2023-04-06T00:32:31;-0.60;96.80
18218;DHT22;9234;49.344;11.120;2023-04-06T00:34:59;-0.60;96.90
18218;DHT22;9234;49.344;11.120;2023-04-06T00:37:29;-0.60;97.00
18218;DHT22;9234;49.344;11.120;2023-04-06T00:39:57;-0.70;97.00
18218;DHT22;9234;49.344;11.120;2023-04-06T00:42:26;-0.70;97.00
18218;DHT22;9234;49.344;11.120;2023-04-06T00:44:56;-0.70;97.20
18218;DHT22;9234;49.344;11.120;2023-04-06T00:47:26;-0.80;97.40
18218;DHT22;9234;49.344;11.120;2023-04-06T00:49:57;-0.80;97.50
18218;DHT22;9234;49.344;11.120;2023-04-06T00:52:26;-0.80;98.00
18218;DHT22;9234;49.344;11.120;2023-04-06T00:54:54;-0.90;97.80
18218;DHT22;9234;49.344;11.120;2023-04-06T00:57:22;-0.90;97.80
18218;DHT22;9234;49.344;11.120;2023-04-06T00:59:54;-0.90;97.70
18218;DHT22;9234;49.344;11.120;2023-04-06T01:02:23;-0.90;97.90
18218;DHT22;9234;49.344;11.120;2023-04-06T01:04:53;-0.90;98.00
18218;DHT22;9234;49.344;11.120;2023-04-06T01:07:46;-0.90;98.20
18218;DHT22;9234;49.344;11.120;2023-04-06T01:10:25;-1.00;98.40
18218;DHT22;9234;49.344;11.120;2023-04-06T01:13:01;-1.00;98.60
18218;DHT22;9234;49.344;11.120;2023-04-06T01:15:57;-1.00;98.60
18218;DHT22;9234;49.344;11.120;2023-04-06T01:18:55;-1.00;98.70
18218;DHT22;9234;49.344;11.120;2023-04-06T01:21:28;-1.10;98.80
18218;DHT22;9234;49.344;11.120;2023-04-06T01:24:14;-1.00;98.90
18218;DHT22;9234;49.344;11.120;2023-04-06T01:27:03;-1.10;98.90
18218;DHT22;9234;49.344;11.120;2023-04-06T01:29:51;-1.10;98.90
18218;DHT22;9234;49.344;11.120;2023-04-06T01:32:46;-1.10;99.10
18218;DHT22;9234;49.344;11.120;2023-04-06T01:35:19;-1.10;99.40
18218;DHT22;9234;49.344;11.120;2023-04-06T01:37:58;-1.20;99.60
18218;DHT22;9234;49.344;11.120;2023-04-06T01:40:32;-1.20;99.70
18218;DHT22;9234;49.344;11.120;2023-04-06T01:43:01;-1.20;99.90
18218;DHT22;9234;49.344;11.120;2023-04-06T01:45:35;-1.20;99.90
18218;DHT22;9234;49.344;11.120;2023-04-06T01:48:13;-1.30;99.90
18218;DHT22;9234;49.344;11.120;2023-04-06T01:50:42;-1.30;99.90
18218;DHT22;9234;49.344;11.120;2023-04-06T01:53:15;-1.30;99.90
18218;DHT22;9234;49.344;11.120;2023-04-06T01:55:46;-1.30;99.90
18218;DHT22;9234;49.344;11.120;2023-04-06T01:58:20;-1.30;99.90
18218;DHT22;9234;49.344;11.120;2023-04-06T02:00:48;-1.30;99.90
18218;DHT22;9234;49.344;11.120;2023-04-06T02:03:17;-1.40;99.90
18218;DHT22;9234;49.344;11.120;2023-04-06T02:05:49;-1.40;99.90
18218;DHT22;9234;49.344;11.120;2023-04-06T02:08:26;-1.40;99.90
18218;DHT22;9234;49.344;11.120;2023-04-06T02:10:55;-1.40;99.90
18218;DHT22;9234;49.344;11.120;2023-04-06T02:13:30;-1.40;99.90
18218;DHT22;9234;49.344;11.120;2023-04-06T02:15:59;-1.40;99.90
18218;DHT22;9234;49.344;11.120;2023-04-06T02:18:30;-1.40;99.90
18218;DHT22;9234;49.344;11.120;2023-04-06T02:20:58;-1.40;99.90
18218;DHT22;9234;49.344;11.120;2023-04-06T02:23:27;-1.40;99.90
18218;DHT22;9234;49.344;11.120;2023-04-06T02:25:58;-1.50;99.90
18218;DHT22;9234;49.344;11.120;2023-04-06T02:28:26;-1.50;99.90
18218;DHT22;9234;49.344;11.120;2023-04-06T02:30:54;-1.50;99.90
18218;DHT22;9234;49.344;11.120;2023-04-06T02:33:26;-1.50;99.90
18218;DHT22;9234;49.344;11.120;2023-04-06T02:35:54;-1.50;99.90
18218;DHT22;9234;49.344;11.120;2023-04-06T02:38:23;-1.50;99.90
18218;DHT22;9234;49.344;11.120;2023-04-06T02:40:51;-1.50;99.90
18218;DHT22;9234;49.344;11.120;2023-04-06T02:43:24;-1.50;99.90
18218;DHT22;9234;49.344;11.120;2023-04-06T02:46:01;-1.60;99.90
18218;DHT22;9234;49.344;11.120;2023-04-06T02:48:33;-1.50;99.90
18218;DHT22;9234;49.344;11.120;2023-04-06T02:51:04;-1.60;99.90
18218;DHT22;9234;49.344;11.120;2023-04-06T02:53:33;-1.60;99.90
18218;DHT22;9234;49.344;11.120;2023-04-06T02:56:01;-1.50;99.90
18218;DHT22;9234;49.344;11.120;2023-04-06T02:58:43;-1.50;99.90
18218;DHT22;9234;49.344;11.120;2023-04-06T03:01:12;-1.50;99.90
18218;DHT22;9234;49.344;11.120;2023-04-06T03:03:41;-1.50;99.90
18218;DHT22;9234;49.344;11.120;2023-04-06T03:06:17;-1.50;99.90
18218;DHT22;9234;49.344;11.120;2023-04-06T03:08:47;-1.50;99.90
18218;DHT22;9234;49.344;11.120;2023-04-06T03:11:16;-1.50;99.90
18218;DHT22;9234;49.344;11.120;2023-04-06T03:13:46;-1.60;99.90
18218;DHT22;9234;49.344;11.120;2023-04-06T03:16:14;-1.60;99.90
18218;DHT22;9234;49.344;11.120;2023-04-06T03:18:43;-1.60;99.90
18218;DHT22;9234;49.344;11.120;2023-04-06T03:21:13;-1.60;99.90
18218;DHT22;9234;49.344;11.120;2023-04-06T03:23:50;-1.60;99.90
18218;DHT22;9234;49.344;11.120;2023-04-06T03:26:19;-1.60;99.90
18218;DHT22;9234;49.344;11.120;2023-04-06T03:28:52;-1.60;99.90
18218;DHT22;9234;49.344;11.120;2023-04-06T03:31:25;-1.60;99.90
18218;DHT22;9234;49.344;11.120;2023-04-06T03:33:58;-1.70;99.90
18218;DHT22;9234;49.344;11.120;2023-04-06T03:36:30;-1.70;99.90
18218;DHT22;9234;49.344;11.120;2023-04-06T03:39:00;-1.70;99.90
18218;DHT22;9234;49.344;11.120;2023-04-06T03:41:31;-1.70;99.90
18218;DHT22;9234;49.344;11.120;2023-04-06T03:44:11;-1.70;99.90
18218;DHT22;9234;49.344;11.120;2023-04-06T03:46:40;-1.70;99.90
18218;DHT22;9234;49.344;11.120;2023-04-06T03:49:10;-1.80;99.90
18218;DHT22;9234;49.344;11.120;2023-04-06T03:51:40;-1.80;99.90
18218;DHT22;9234;49.344;11.120;2023-04-06T03:54:08;-1.80;99.90
18218;DHT22;9234;49.344;11.120;2023-04-06T03:56:37;-1.80;99.90
18218;DHT22;9234;49.344;11.120;2023-04-06T03:59:05;-1.80;99.90
18218;DHT22;9234;49.344;11.120;2023-04-06T04:01:35;-1.90;99.90
18218;DHT22;9234;49.344;11.120;2023-04-06T04:04:04;-1.90;99.90
18218;DHT22;9234;49.344;11.120;2023-04-06T04:06:32;-1.90;99.90
18218;DHT22;9234;49.344;11.120;2023-04-06T04:09:03;-1.90;99.90
18218;DHT22;9234;49.344;11.120;2023-04-06T04:11:31;-1.90;99.90
18218;DHT22;9234;49.344;11.120;2023-04-06T04:14:00;-1.90;99.90
18218;DHT22;9234;49.344;11.120;2023-04-06T04:16:28;-1.90;99.90
18218;DHT22;9234;49.344;11.120;2023-04-06T04:18:58;-2.00;99.90
18218;DHT22;9234;49.344;11.120;2023-04-06T04:21:29;-2.00;99.90
18218;DHT22;9234;49.344;11.120;2023-04-06T04:24:06;-2.00;99.90
18218;DHT22;9234;49.344;11.120;2023-04-06T04:26:36;-2.00;99.90
18218;DHT22;9234;49.344;11.120;2023-04-06T04:29:06;-2.00;99.90
18218;DHT22;9234;49.344;11.120;2023-04-06T04:31:36;-2.00;99.90
18218;DHT22;9234;49.344;11.120;2023-04-06T04:34:13;-2.00;99.90
18218;DHT22;9234;49.344;11.120;2023-04-06T04:36:42;-2.10;99.90
18218;DHT22;9234;49.344;11.120;2023-04-06T04:39:16;-2.10;99.90
18218;DHT22;9234;49.344;11.120;2023-04-06T04:41:49;-2.10;99.90
18218;DHT22;9234;49.344;11.120;2023-04-06T04:44:17;-2.10;99.90
18218;DHT22;9234;49.344;11.120;2023-04-06T04:46:46;-2.10;99.90
18218;DHT22;9234;49.344;11.120;2023-04-06T04:49:19;-2.10;99.90
18218;DHT22;9234;49.344;11.120;2023-04-06T04:51:49;-2.10;99.90
18218;DHT22;9234;49.344;11.120;2023-04-06T04:54:26;-2.10;99.90
18218;DHT22;9234;49.344;11.120;2023-04-06T04:56:55;-2.10;99.90
18218;DHT22;9234;49.344;11.120;2023-04-06T04:59:35;-2.10;99.90
18218;DHT22;9234;49.344;11.120;2023-04-06T05:02:14;-2.10;99.90
18218;DHT22;9234;49.344;11.120;2023-04-06T05:04:56;-2.10;99.90
18218;DHT22;9234;49.344;11.120;2023-04-06T05:07:26;-2.10;99.90
18218;DHT22;9234;49.344;11.120;2023-04-06T05:09:56;-2.10;99.90
18218;DHT22;9234;49.344;11.120;2023-04-06T05:12:28;-2.20;99.90
18218;DHT22;9234;49.344;11.120;2023-04-06T05:15:07;-2.10;99.90
18218;DHT22;9234;49.344;11.120;2023-04-06T05:17:37;-2.10;99.90
18218;DHT22;9234;49.344;11.120;2023-04-06T05:20:10;-2.10;99.90
18218;DHT22;9234;49.344;11.120;2023-04-06T05:22:45;-2.10;99.90
18218;DHT22;9234;49.344;11.120;2023-04-06T05:25:15;-2.00;99.90
18218;DHT22;9234;49.344;11.120;2023-04-06T05:27:45;-2.00;99.90
18218;DHT22;9234;49.344;11.120;2023-04-06T05:30:27;-1.90;99.90
18218;DHT22;9234;49.344;11.120;2023-04-06T05:32:56;-1.90;99.90
18218;DHT22;9234;49.344;11.120;2023-04-06T05:35:29;-1.90;99.90
18218;DHT22;9234;49.344;11.120;2023-04-06T05:38:05;-1.80;99.90
18218;DHT22;9234;49.344;11.120;2023-04-06T05:40:35;-1.80;99.90
18218;DHT22;9234;49.344;11.120;2023-04-06T05:43:06;-1.70;99.90
18218;DHT22;9234;49.344;11.120;2023-04-06T05:45:38;-1.60;99.90
18218;DHT22;9234;49.344;11.120;2023-04-06T05:48:07;-1.60;99.90
18218;DHT22;9234;49.344;11.120;2023-04-06T05:50:36;-1.60;99.90
18218;DHT22;9234;49.344;11.120;2023-04-06T05:53:05;-1.50;99.90
18218;DHT22;9234;49.344;11.120;2023-04-06T05:55:39;-1.40;99.90
18218;DHT22;9234;49.344;11.120;2023-04-06T05:58:17;-1.40;99.90
18218;DHT22;9234;49.344;11.120;2023-04-06T06:00:47;-1.30;99.90
18218;DHT22;9234;49.344;11.120;2023-04-06T06:03:19;-1.20;99.90
18218;DHT22;9234;49.344;11.120;2023-04-06T06:05:58;-1.20;99.90
18218;DHT22;9234;49.344;11.120;2023-04-06T06:08:34;-1.10;99.90
18218;DHT22;9234;49.344;11.120;2023-04-06T06:11:09;-1.00;99.90
18218;DHT22;9234;49.344;11.120;2023-04-06T06:13:37;-0.90;99.90
18218;DHT22;9234;49.344;11.120;2023-04-06T06:16:06;-0.80;99.90
18218;DHT22;9234;49.344;11.120;2023-04-06T06:18:41;-0.70;99.90
18218;DHT22;9234;49.344;11.120;2023-04-06T06:21:10;-0.60;99.90
18218;DHT22;9234;49.344;11.120;2023-04-06T06:23:41;-0.50;99.90
18218;DHT22;9234;49.344;11.120;2023-04-06T06:26:14;-0.40;99.90
18218;DHT22;9234;49.344;11.120;2023-04-06T06:28:43;-0.30;99.90
18218;DHT22;9234;49.344;11.120;2023-04-06T06:31:13;-0.20;99.90
18218;DHT22;9234;49.344;11.120;2023-04-06T06:33:42;-0.10;99.90
18218;DHT22;9234;49.344;11.120;2023-04-06T06:36:13;0.00;99.90
18218;DHT22;9234;49.344;11.120;2023-04-06T06:38:42;0.10;99.90
18218;DHT22;9234;49.344;11.120;2023-04-06T06:41:11;0.20;99.90
18218;DHT22;9234;49.344;11.120;2023-04-06T06:43:40;0.30;99.90
18218;DHT22;9234;49.344;11.120;2023-04-06T06:46:10;0.40;99.90
18218;DHT22;9234;49.344;11.120;2023-04-06T06:48:40;0.50;99.90
18218;DHT22;9234;49.344;11.120;2023-04-06T06:51:09;0.60;99.90
18218;DHT22;9234;49.344;11.120;2023-04-06T06:53:41;0.80;99.90
18218;DHT22;9234;49.344;11.120;2023-04-06T06:56:10;0.90;99.90
18218;DHT22;9234;49.344;11.120;2023-04-06T06:58:39;1.00;99.90
18218;DHT22;9234;49.344;11.120;2023-04-06T07:01:08;1.20;99.90
18218;DHT22;9234;49.344;11.120;2023-04-06T07:03:37;1.30;99.90
18218;DHT22;9234;49.344;11.120;2023-04-06T07:06:06;1.50;99.90
18218;DHT22;9234;49.344;11.120;2023-04-06T07:08:34;1.60;99.90
18218;DHT22;9234;49.344;11.120;2023-04-06T07:11:04;1.80;99.90
18218;DHT22;9234;49.344;11.120;2023-04-06T07:13:33;1.90;99.90
18218;DHT22;9234;49.344;11.120;2023-04-06T07:16:02;2.00;99.90
18218;DHT22;9234;49.344;11.120;2023-04-06T07:18:31;2.20;99.90
18218;DHT22;9234;49.344;11.120;2023-04-06T07:21:03;2.30;99.90
18218;DHT22;9234;49.344;11.120;2023-04-06T07:23:31;2.50;99.90
18218;DHT22;9234;49.344;11.120;2023-04-06T07:26:00;2.60;99.90
18218;DHT22;9234;49.344;11.120;2023-04-06T07:28:30;2.70;99.90
18218;DHT22;9234;49.344;11.120;2023-04-06T07:31:00;2.90;99.90
18218;DHT22;9234;49.344;11.120;2023-04-06T07:33:29;3.00;99.90
18218;DHT22;9234;49.344;11.120;2023-04-06T07:35:58;3.20;99.90
18218;DHT22;9234;49.344;11.120;2023-04-06T07:38:27;3.30;99.90
18218;DHT22;9234;49.344;11.120;2023-04-06T07:40:55;3.40;99.90
18218;DHT22;9234;49.344;11.120;2023-04-06T07:43:24;3.60;99.90
18218;DHT22;9234;49.344;11.120;2023-04-06T07:45:54;3.80;99.90
18218;DHT22;9234;49.344;11.120;2023-04-06T07:48:24;3.90;99.90
18218;DHT22;9234;49.344;11.120;2023-04-06T07:51:00;4.00;99.90
18218;DHT22;9234;49.344;11.120;2023-04-06T07:53:32;4.20;99.90
18218;DHT22;9234;49.344;11.120;2023-04-06T07:56:01;4.40;99.90
18218;DHT22;9234;49.344;11.120;2023-04-06T07:58:29;4.50;99.90
18218;DHT22;9234;49.344;11.120;2023-04-06T08:00:59;4.70;99.80
18218;DHT22;9234;49.344;11.120;2023-04-06T08:03:27;4.80;99.50
18218;DHT22;9234;49.344;11.120;2023-04-06T08:05:56;5.00;98.30
18218;DHT22;9234;49.344;11.120;2023-04-06T08:08:25;5.10;97.60
18218;DHT22;9234;49.344;11.120;2023-04-06T08:10:53;5.30;96.60
18218;DHT22;9234;49.344;11.120;2023-04-06T08:13:22;5.50;96.30
18218;DHT22;9234;49.344;11.120;2023-04-06T08:15:50;5.60;96.20
18218;DHT22;9234;49.344;11.120;2023-04-06T08:18:21;5.80;96.00
18218;DHT22;9234;49.344;11.120;2023-04-06T08:20:50;5.90;95.60
18218;DHT22;9234;49.344;11.120;2023-04-06T08:23:18;6.10;95.10
18218;DHT22;9234;49.344;11.120;2023-04-06T08:25:47;6.20;94.30
18218;DHT22;9234;49.344;11.120;2023-04-06T08:28:15;6.40;94.40
18218;DHT22;9234;49.344;11.120;2023-04-06T08:30:44;6.50;93.70
18218;DHT22;9234;49.344;11.120;2023-04-06T08:33:12;6.70;93.50
18218;DHT22;9234;49.344;11.120;2023-04-06T08:35:42;6.80;93.50
18218;DHT22;9234;49.344;11.120;2023-04-06T08:38:11;7.00;93.00
18218;DHT22;9234;49.344;11.120;2023-04-06T08:40:39;7.10;92.60
18218;DHT22;9234;49.344;11.120;2023-04-06T08:43:14;7.20;92.40
18218;DHT22;9234;49.344;11.120;2023-04-06T08:45:46;7.40;92.30
18218;DHT22;9234;49.344;11.120;2023-04-06T08:48:14;7.50;91.90
18218;DHT22;9234;49.344;11.120;2023-04-06T08:50:46;7.70;90.80
18218;DHT22;9234;49.344;11.120;2023-04-06T08:53:16;7.90;90.30
18218;DHT22;9234;49.344;11.120;2023-04-06T08:55:44;8.00;90.30
18218;DHT22;9234;49.344;11.120;2023-04-06T08:58:13;8.20;89.40
18218;DHT22;9234;49.344;11.120;2023-04-06T09:00:57;8.30;89.10
18218;DHT22;9234;49.344;11.120;2023-04-06T09:03:28;8.50;83.60
18218;DHT22;9234;49.344;11.120;2023-04-06T09:06:00;8.60;83.60
18218;DHT22;9234;49.344;11.120;2023-04-06T09:08:29;8.80;82.10
18218;DHT22;9234;49.344;11.120;2023-04-06T09:10:57;8.90;80.90
18218;DHT22;9234;49.344;11.120;2023-04-06T09:13:26;9.00;80.90
18218;DHT22;9234;49.344;11.120;2023-04-06T09:16:01;9.10;80.50
18218;DHT22;9234;49.344;11.120;2023-04-06T09:18:31;9.30;78.00
18218;DHT22;9234;49.344;11.120;2023-04-06T09:21:03;9.40;77.10
18218;DHT22;9234;49.344;11.120;2023-04-06T09:23:33;9.50;76.80
18218;DHT22;9234;49.344;11.120;2023-04-06T09:26:06;9.70;75.00
18218;DHT22;9234;49.344;11.120;2023-04-06T09:28:42;9.90;75.10
18218;DHT22;9234;49.344;11.120;2023-04-06T09:31:15;10.10;75.50
18218;DHT22;9234;49.344;11.120;2023-04-06T09:33:45;10.30;75.50
18218;DHT22;9234;49.344;11.120;2023-04-06T09:36:15;10.60;74.60
18218;DHT22;9234;49.344;11.120;2023-04-06T09:38:54;10.80;74.50
18218;DHT22;9234;49.344;11.120;2023-04-06T09:41:24;11.00;73.70
18218;DHT22;9234;49.344;11.120;2023-04-06T09:44:02;11.10;71.00
18218;DHT22;9234;49.344;11.120;2023-04-06T09:46:33;11.30;73.00
18218;DHT22;9234;49.344;11.120;2023-04-06T09:49:23;11.50;72.80
18218;DHT22;9234;49.344;11.120;2023-04-06T09:51:59;11.80;72.70
18218;DHT22;9234;49.344;11.120;2023-04-06T09:54:30;11.90;71.90
18218;DHT22;9234;49.344;11.120;2023-04-06T09:57:05;12.10;71.50
18218;DHT22;9234;49.344;11.120;2023-04-06T09:59:47;12.30;70.80
18218;DHT22;9234;49.344;11.120;2023-04-06T10:02:26;12.50;68.40
18218;DHT22;9234;49.344;11.120;2023-04-06T10:05:05;12.50;65.00
18218;DHT22;9234;49.344;11.120;2023-04-06T10:07:42;12.70;66.10
18218;DHT22;9234;49.344;11.120;2023-04-06T10:10:26;12.80;64.10
18218;DHT22;9234;49.344;11.120;2023-04-06T10:12:56;12.80;61.90
18218;DHT22;9234;49.344;11.120;2023-04-06T10:15:26;12.70;61.20
18218;DHT22;9234;49.344;11.120;2023-04-06T10:17:56;12.50;62.50
18218;DHT22;9234;49.344;11.120;2023-04-06T10:20:29;12.60;64.80
18218;DHT22;9234;49.344;11.120;2023-04-06T10:23:10;12.90;65.00
18218;DHT22;9234;49.344;11.120;2023-04-06T10:25:52;13.20;65.40
18218;DHT22;9234;49.344;11.120;2023-04-06T10:28:22;13.50;63.90
18218;DHT22;9234;49.344;11.120;2023-04-06T10:30:57;13.80;62.10
18218;DHT22;9234;49.344;11.120;2023-04-06T10:33:27;13.90;60.10
18218;DHT22;9234;49.344;11.120;2023-04-06T10:35:56;14.10;62.00
18218;DHT22;9234;49.344;11.120;2023-04-06T10:38:35;14.30;61.70
18218;DHT22;9234;49.344;11.120;2023-04-06T10:41:09;14.60;62.50
18218;DHT22;9234;49.344;11.120;2023-04-06T10:43:39;14.90;62.50
18218;DHT22;9234;49.344;11.120;2023-04-06T10:46:09;15.10;59.90
18218;DHT22;9234;49.344;11.120;2023-04-06T10:48:39;15.20;57.80
18218;DHT22;9234;49.344;11.120;2023-04-06T10:51:10;15.30;56.90
18218;DHT22;9234;49.344;11.120;2023-04-06T10:53:41;15.50;57.70
18218;DHT22;9234;49.344;11.120;2023-04-06T10:56:13;15.40;54.70
18218;DHT22;9234;49.344;11.120;2023-04-06T10:58:46;15.20;52.70
18218;DHT22;9234;49.344;11.120;2023-04-06T11:01:15;15.10;53.90
18218;DHT22;9234;49.344;11.120;2023-04-06T11:03:46;15.00;54.50
18218;DHT22;9234;49.344;11.120;2023-04-06T11:06:19;15.30;56.40
18218;DHT22;9234;49.344;11.120;2023-04-06T11:08:50;15.50;55.90
18218;DHT22;9234;49.344;11.120;2023-04-06T11:11:20;15.70;55.70
18218;DHT22;9234;49.344;11.120;2023-04-06T11:13:51;16.00;54.80
18218;DHT22;9234;49.344;11.120;2023-04-06T11:16:22;16.20;54.80
18218;DHT22;9234;49.344;11.120;2023-04-06T11:18:53;16.40;53.30
18218;DHT22;9234;49.344;11.120;2023-04-06T11:21:34;16.50;53.20
18218;DHT22;9234;49.344;11.120;2023-04-06T11:24:09;16.60;53.00
18218;DHT22;9234;49.344;11.120;2023-04-06T11:26:43;16.70;53.20
18218;DHT22;9234;49.344;11.120;2023-04-06T11:29:15;16.90;53.00
18218;DHT22;9234;49.344;11.120;2023-04-06T11:31:46;17.00;51.30
18218;DHT22;9234;49.344;11.120;2023-04-06T11:34:17;16.90;50.50
18218;DHT22;9234;49.344;11.120;2023-04-06T11:36:47;16.90;49.70
18218;DHT22;9234;49.344;11.120;2023-04-06T11:39:20;16.90;49.30
18218;DHT22;9234;49.344;11.120;2023-04-06T11:41:51;16.90;51.30
18218;DHT22;9234;49.344;11.120;2023-04-06T11:44:32;17.20;50.60
18218;DHT22;9234;49.344;11.120;2023-04-06T11:47:03;17.40;48.40
18218;DHT22;9234;49.344;11.120;2023-04-06T11:49:33;17.50;48.70
18218;DHT22;9234;49.344;11.120;2023-04-06T11:52:14;17.60;48.70
18218;DHT22;9234;49.344;11.120;2023-04-06T11:54:46;17.60;45.80
18218;DHT22;9234;49.344;11.120;2023-04-06T11:57:17;17.60;46.60
18218;DHT22;9234;49.344;11.120;2023-04-06T11:59:46;17.80;47.70
18218;DHT22;9234;49.344;11.120;2023-04-06T12:02:15;18.00;48.60
18218;DHT22;9234;49.344;11.120;2023-04-06T12:04:44;18.30;46.30
18218;DHT22;9234;49.344;11.120;2023-04-06T12:07:13;18.30;46.80
18218;DHT22;9234;49.344;11.120;2023-04-06T12:09:42;18.50;47.70
18218;DHT22;9234;49.344;11.120;2023-04-06T12:12:12;18.70;47.60
18218;DHT22;9234;49.344;11.120;2023-04-06T12:14:41;19.00;49.00
18218;DHT22;9234;49.344;11.120;2023-04-06T12:17:09;19.30;48.30
18218;DHT22;9234;49.344;11.120;2023-04-06T12:19:38;19.30;45.10
18218;DHT22;9234;49.344;11.120;2023-04-06T12:22:07;19.30;44.20
18218;DHT22;9234;49.344;11.120;2023-04-06T12:24:35;19.30;43.70
18218;DHT22;9234;49.344;11.120;2023-04-06T12:27:05;19.40;44.70
18218;DHT22;9234;49.344;11.120;2023-04-06T12:29:36;19.30;42.10
18218;DHT22;9234;49.344;11.120;2023-04-06T12:32:05;18.80;41.20
18218;DHT22;9234;49.344;11.120;2023-04-06T12:34:33;18.80;43.40
18218;DHT22;9234;49.344;11.120;2023-04-06T12:37:02;18.80;42.70
18218;DHT22;9234;49.344;11.120;2023-04-06T12:39:30;18.90;43.30
18218;DHT22;9234;49.344;11.120;2023-04-06T12:41:59;18.90;43.50
18218;DHT22;9234;49.344;11.120;2023-04-06T12:44:29;19.10;44.30
18218;DHT22;9234;49.344;11.120;2023-04-06T12:47:00;19.50;44.70
18218;DHT22;9234;49.344;11.120;2023-04-06T12:49:29;19.90;43.30
18218;DHT22;9234;49.344;11.120;2023-04-06T12:51:58;20.00;42.00
18218;DHT22;9234;49.344;11.120;2023-04-06T12:54:27;20.10;42.40
18218;DHT22;9234;49.344;11.120;2023-04-06T12:56:55;20.40;43.00
18218;DHT22;9234;49.344;11.120;2023-04-06T12:59:24;20.50;42.10
18218;DHT22;9234;49.344;11.120;2023-04-06T13:01:54;20.40;40.20
18218;DHT22;9234;49.344;11.120;2023-04-06T13:04:23;20.70;42.00
18218;DHT22;9234;49.344;11.120;2023-04-06T13:06:53;21.10;41.70
18218;DHT22;9234;49.344;11.120;2023-04-06T13:09:23;21.30;40.60
18218;DHT22;9234;49.344;11.120;2023-04-06T13:11:51;21.50;40.00
18218;DHT22;9234;49.344;11.120;2023-04-06T13:14:20;21.20;39.90
18218;DHT22;9234;49.344;11.120;2023-04-06T13:16:48;20.90;39.90
18218;DHT22;9234;49.344;11.120;2023-04-06T13:19:19;21.10;40.90
18218;DHT22;9234;49.344;11.120;2023-04-06T13:21:48;21.00;38.00
18218;DHT22;9234;49.344;11.120;2023-04-06T13:24:16;20.80;38.50
18218;DHT22;9234;49.344;11.120;2023-04-06T13:26:46;20.80;40.20
18218;DHT22;9234;49.344;11.120;2023-04-06T13:29:16;21.10;41.30
18218;DHT22;9234;49.344;11.120;2023-04-06T13:39:49;22.30;39.40
18218;DHT22;9234;49.344;11.120;2023-04-06T13:42:18;22.10;38.50
18218;DHT22;9234;49.344;11.120;2023-04-06T13:44:46;21.50;39.10
18218;DHT22;9234;49.344;11.120;2023-04-06T13:47:17;21.50;40.90
18218;DHT22;9234;49.344;11.120;2023-04-06T13:49:45;21.50;40.80
18218;DHT22;9234;49.344;11.120;2023-04-06T13:52:14;21.80;41.40
18218;DHT22;9234;49.344;11.120;2023-04-06T13:54:42;22.30;41.30
18218;DHT22;9234;49.344;11.120;2023-04-06T13:57:12;22.80;40.10
18218;DHT22;9234;49.344;11.120;2023-04-06T13:59:40;23.30;39.20
18218;DHT22;9234;49.344;11.120;2023-04-06T14:02:13;23.40;37.70
18218;DHT22;9234;49.344;11.120;2023-04-06T14:04:42;23.60;38.80
18218;DHT22;9234;49.344;11.120;2023-04-06T14:07:10;23.70;36.00
18218;DHT22;9234;49.344;11.120;2023-04-06T14:09:38;23.70;35.00
18218;DHT22;9234;49.344;11.120;2023-04-06T14:12:06;23.70;35.20
18218;DHT22;9234;49.344;11.120;2023-04-06T14:14:36;23.80;35.30
18218;DHT22;9234;49.344;11.120;2023-04-06T14:17:04;23.30;33.00
18218;DHT22;9234;49.344;11.120;2023-04-06T14:19:32;23.00;36.30
18218;DHT22;9234;49.344;11.120;2023-04-06T14:22:01;23.20;37.50
18218;DHT22;9234;49.344;11.120;2023-04-06T14:24:29;23.40;35.70
18218;DHT22;9234;49.344;11.120;2023-04-06T14:26:57;23.80;35.40
18218;DHT22;9234;49.344;11.120;2023-04-06T14:29:27;23.70;33.40
18218;DHT22;9234;49.344;11.120;2023-04-06T14:31:57;23.60;34.40
18218;DHT22;9234;49.344;11.120;2023-04-06T14:34:26;23.50;34.30
18218;DHT22;9234;49.344;11.120;2023-04-06T14:36:55;23.10;33.60
18218;DHT22;9234;49.344;11.120;2023-04-06T14:39:23;23.10;34.90
18218;DHT22;9234;49.344;11.120;2023-04-06T14:41:53;22.80;34.50
18218;DHT22;9234;49.344;11.120;2023-04-06T14:44:21;22.70;35.20
18218;DHT22;9234;49.344;11.120;2023-04-06T14:46:50;22.70;34.10
18218;DHT22;9234;49.344;11.120;2023-04-06T14:49:19;23.00;35.40
18218;DHT22;9234;49.344;11.120;2023-04-06T14:51:48;22.50;33.60
18218;DHT22;9234;49.344;11.120;2023-04-06T14:54:18;22.60;35.50
18218;DHT22;9234;49.344;11.120;2023-04-06T14:56:46;23.00;35.60
18218;DHT22;9234;49.344;11.120;2023-04-06T14:59:14;23.30;36.60
18218;DHT22;9234;49.344;11.120;2023-04-06T15:01:42;23.40;34.60
18218;DHT22;9234;49.344;11.120;2023-04-06T15:04:11;23.50;34.30
18218;DHT22;9234;49.344;11.120;2023-04-06T15:06:42;23.70;35.20
18218;DHT22;9234;49.344;11.120;2023-04-06T15:09:10;23.80;34.60
18218;DHT22;9234;49.344;11.120;2023-04-06T15:11:38;23.90;33.70
18218;DHT22;9234;49.344;11.120;2023-04-06T15:14:07;23.90;34.00
18218;DHT22;9234;49.344;11.120;2023-04-06T15:16:35;23.80;33.60
18218;DHT22;9234;49.344;11.120;2023-04-06T15:19:03;24.00;35.10
18218;DHT22;9234;49.344;11.120;2023-04-06T15:21:31;24.30;35.10
18218;DHT22;9234;49.344;11.120;2023-04-06T15:24:01;24.60;35.30
18218;DHT22;9234;49.344;11.120;2023-04-06T15:26:32;24.80;34.90
18218;DHT22;9234;49.344;11.120;2023-04-06T15:29:01;24.80;32.50
18218;DHT22;9234;49.344;11.120;2023-04-06T15:31:29;24.60;33.80
18218;DHT22;9234;49.344;11.120;2023-04-06T15:34:04;24.60;34.00
18218;DHT22;9234;49.344;11.120;2023-04-06T15:36:35;24.60;33.10
18218;DHT22;9234;49.344;11.120;2023-04-06T15:39:05;24.00;31.40
18218;DHT22;9234;49.344;11.120;2023-04-06T15:41:35;24.00;34.10
18218;DHT22;9234;49.344;11.120;2023-04-06T15:44:04;24.20;33.30
18218;DHT22;9234;49.344;11.120;2023-04-06T15:46:32;24.10;32.20
18218;DHT22;9234;49.344;11.120;2023-04-06T15:49:01;24.10;32.40
18218;DHT22;9234;49.344;11.120;2023-04-06T15:51:30;23.70;33.10
18218;DHT22;9234;49.344;11.120;2023-04-06T15:53:59;23.70;33.10
18218;DHT22;9234;49.344;11.120;2023-04-06T15:56:29;23.60;32.60
18218;DHT22;9234;49.344;11.120;2023-04-06T15:58:58;23.60;33.10
18218;DHT22;9234;49.344;11.120;2023-04-06T16:01:27;23.40;33.00
18218;DHT22;9234;49.344;11.120;2023-04-06T16:03:55;23.50;33.80